Time;durP1;ratioP1;P1;durP2;ratioP2;P2;SDS_P1;SDS_P2;PMS_P1;PMS_P2;Temp;Humidity;BMP_temperature;BMP_pressure;BME280_temperature;BME280_humidity;BME280_pressure;Samples;Min_cycle;Max_cycle;Signal;HPM_P1;HPM_P2
2023/03/05 00:01:32;;;;;;;;;;;;;;;5.60;81.59;99390.78;5071163;28;19912;-91
2023/03/05 00:03:58;;;;;;;;;;;;;;;5.59;81.30;99383.81;5070998;28;19913;-86
2023/03/05 00:06:25;;;;;;;;;;;;;;;5.58;81.24;99390.78;5070204;28;19912;-86
2023/03/05 00:08:52;;;;;;;;;;;;;;;5.48;81.20;99394.25;5070369;28;19930;-86
2023/03/05 00:11:17;;;;;;;;;;;;;;;5.52;81.15;99385.56;5074115;28;19916;-86
2023/03/05 00:13:42;;;;;;;;;;;;;;;5.67;80.75;99390.78;5074269;28;19969;-90
2023/03/05 00:16:09;;;;;;;;;;;;;;;5.67;80.12;99395.13;5074710;28;20405;-86
2023/03/05 00:18:35;;;;;;;;;;;;;;;5.68;79.37;99396.91;5072639;28;19934;-86
2023/03/05 00:21:00;;;;;;;;;;;;;;;5.46;79.60;99394.25;5074242;28;20313;-86
2023/03/05 00:23:26;;;;;;;;;;;;;;;5.51;79.48;99383.81;5074323;28;19973;-86
2023/03/05 00:25:51;;;;;;;;;;;;;;;5.52;79.90;99378.56;5074187;28;19916;-86
2023/03/05 00:28:16;;;;;;;;;;;;;;;5.49;80.45;99380.31;5072679;28;20390;-86
2023/03/05 00:30:42;;;;;;;;;;;;;;;5.52;80.46;99383.81;5074508;28;19913;-86
2023/03/05 00:33:07;;;;;;;;;;;;;;;5.62;80.18;99373.34;5054121;28;19917;-86
2023/03/05 00:35:40;;;;;;;;;;;;;;;5.54;80.51;99365.50;5054009;28;20011;-85
2023/03/05 00:38:05;;;;;;;;;;;;;;;5.56;80.67;99364.63;5053968;28;19916;-86
2023/03/05 00:40:33;;;;;;;;;;;;;;;5.60;79.97;99362.00;5060716;28;20011;-85
2023/03/05 00:42:59;;;;;;;;;;;;;;;5.51;79.72;99368.97;5073924;28;19924;-84
2023/03/05 00:45:24;;;;;;;;;;;;;;;5.43;79.05;99365.47;5073707;28;19920;-84
2023/03/05 00:47:49;;;;;;;;;;;;;;;5.50;79.02;99368.97;5073603;28;19919;-84
2023/03/05 00:50:14;;;;;;;;;;;;;;;5.51;78.12;99366.34;5073735;28;20354;-85
2023/03/05 00:52:40;;;;;;;;;;;;;;;5.27;79.17;99363.75;5073248;28;19916;-84
2023/03/05 00:55:05;;;;;;;;;;;;;;;5.03;80.75;99360.19;5073337;28;19916;-91
2023/03/05 00:57:30;;;;;;;;;;;;;;;4.96;81.12;99361.94;5074113;28;19936;-84
2023/03/05 00:59:56;;;;;;;;;;;;;;;5.24;80.43;99355.91;5073699;28;19912;-84
2023/03/05 01:02:21;;;;;;;;;;;;;;;5.28;79.72;99353.25;5073417;28;20333;-84
2023/03/05 01:04:46;;;;;;;;;;;;;;;5.19;79.86;99353.28;5074101;28;19920;-84
2023/03/05 01:07:12;;;;;;;;;;;;;;;5.23;79.90;99356.75;5073281;28;19912;-84
2023/03/05 01:09:37;;;;;;;;;;;;;;;5.36;79.57;99362.00;5073164;28;20002;-84
2023/03/05 01:12:03;;;;;;;;;;;;;;;5.21;79.38;99351.53;5073554;28;20302;-84
2023/03/05 01:14:28;;;;;;;;;;;;;;;5.10;79.20;99356.75;5073216;28;20370;-84
2023/03/05 01:16:53;;;;;;;;;;;;;;;4.98;79.44;99349.72;5073590;28;20314;-85
2023/03/05 01:19:19;;;;;;;;;;;;;;;4.97;79.25;99345.41;5073678;28;20010;-84
2023/03/05 01:21:44;;;;;;;;;;;;;;;5.11;79.44;99348.03;5072918;28;20025;-84
2023/03/05 01:24:09;;;;;;;;;;;;;;;5.10;78.73;99341.06;5070557;28;19927;-85
2023/03/05 01:26:35;;;;;;;;;;;;;;;5.01;79.54;99343.66;5073559;28;19912;-84
2023/03/05 01:29:00;;;;;;;;;;;;;;;5.01;79.48;99349.75;5073425;28;19916;-84
2023/03/05 01:31:25;;;;;;;;;;;;;;;4.95;79.64;99341.03;5073592;28;20480;-84
2023/03/05 01:33:52;;;;;;;;;;;;;;;4.98;79.86;99333.19;5072734;28;19920;-84
2023/03/05 01:36:17;;;;;;;;;;;;;;;5.09;79.38;99339.28;5072836;28;19975;-85
2023/03/05 01:38:44;;;;;;;;;;;;;;;5.10;79.39;99335.81;5073021;28;20411;-84
2023/03/05 01:41:09;;;;;;;;;;;;;;;5.13;79.19;99330.59;5072638;28;20392;-85
2023/03/05 01:43:35;;;;;;;;;;;;;;;5.15;78.88;99330.59;5072698;28;19913;-86
2023/03/05 01:46:30;;;;;;;;;;;;;;;5.15;78.80;99334.06;5072642;28;19923;-85
2023/03/05 01:48:55;;;;;;;;;;;;;;;5.04;78.56;99321.88;5010973;28;19913;-85
2023/03/05 01:51:22;;;;;;;;;;;;;;;4.98;78.72;99327.97;5011164;28;19917;-85
2023/03/05 01:53:48;;;;;;;;;;;;;;;5.05;78.23;99329.72;5010708;28;19975;-86
2023/03/05 01:56:13;;;;;;;;;;;;;;;5.01;78.62;99327.97;5010924;28;20008;-86
2023/03/05 01:58:39;;;;;;;;;;;;;;;4.97;78.79;99326.19;5011155;28;19909;-85
2023/03/05 02:01:05;;;;;;;;;;;;;;;4.99;78.78;99333.19;5011202;28;19913;-85
2023/03/05 02:03:31;;;;;;;;;;;;;;;4.90;79.35;99329.69;5011118;28;19965;-85
2023/03/05 02:05:56;;;;;;;;;;;;;;;4.96;79.35;99327.09;5021171;28;19920;-85
2023/03/05 02:08:21;;;;;;;;;;;;;;;4.97;79.21;99328.81;5030809;28;20510;-85
2023/03/05 02:10:49;;;;;;;;;;;;;;;4.95;79.13;99320.97;5021717;28;19913;-85
2023/03/05 02:13:22;;;;;;;;;;;;;;;4.90;80.00;99325.31;5010556;28;20319;-85
2023/03/05 02:15:48;;;;;;;;;;;;;;;4.71;81.28;99326.13;5010874;28;19917;-85
2023/03/05 02:18:15;;;;;;;;;;;;;;;4.68;81.86;99324.41;5010563;28;20027;-86
2023/03/05 02:20:44;;;;;;;;;;;;;;;4.91;81.46;99326.19;5010466;28;20420;-86
2023/03/05 02:23:10;;;;;;;;;;;;;;;4.86;81.36;99317.47;5010704;28;19913;-85
2023/03/05 02:25:35;;;;;;;;;;;;;;;4.87;81.32;99319.22;5049021;28;19930;-86
2023/03/05 02:28:00;;;;;;;;;;;;;;;4.93;81.02;99316.63;5071674;28;19924;-86
2023/03/05 02:30:26;;;;;;;;;;;;;;;5.01;80.69;99314.88;5072390;28;19919;-85
2023/03/05 02:32:51;;;;;;;;;;;;;;;4.88;80.35;99320.97;5071234;28;19908;-86
2023/03/05 02:35:16;;;;;;;;;;;;;;;4.70;80.19;99317.44;5071721;28;20719;-86
2023/03/05 02:37:42;;;;;;;;;;;;;;;4.65;80.54;99322.66;5071632;28;19948;-87
2023/03/05 02:40:08;;;;;;;;;;;;;;;4.59;80.98;99325.25;5072383;28;20306;-85
2023/03/05 02:42:34;;;;;;;;;;;;;;;4.70;80.82;99325.28;5071569;28;19924;-85
2023/03/05 02:44:59;;;;;;;;;;;;;;;4.77;80.72;99326.16;5072205;28;20391;-85
2023/03/05 02:47:25;;;;;;;;;;;;;;;4.83;80.03;99324.44;5072056;28;19969;-84
2023/03/05 02:49:51;;;;;;;;;;;;;;;4.68;80.41;99331.34;5072361;28;20366;-83
2023/03/05 02:52:16;;;;;;;;;;;;;;;4.91;79.89;99321.84;5072563;28;19916;-84
2023/03/05 02:54:41;;;;;;;;;;;;;;;4.88;79.56;99323.56;5072028;28;20291;-84
2023/03/05 02:57:07;;;;;;;;;;;;;;;4.84;78.96;99327.94;5072124;28;19919;-86
2023/03/05 02:59:32;;;;;;;;;;;;;;;4.65;79.29;99327.03;5071543;28;20356;-84
2023/03/05 03:01:57;;;;;;;;;;;;;;;4.75;78.20;99325.28;5071346;28;19963;-84
2023/03/05 03:04:22;;;;;;;;;;;;;;;4.50;79.09;99319.13;5071166;28;20386;-84
2023/03/05 03:06:48;;;;;;;;;;;;;;;4.28;80.80;99319.91;5071063;28;20444;-84
2023/03/05 03:09:13;;;;;;;;;;;;;;;4.40;79.95;99323.41;5071647;28;20274;-84
2023/03/05 03:11:38;;;;;;;;;;;;;;;4.47;79.99;99315.63;5070845;28;20386;-84
2023/03/05 03:14:04;;;;;;;;;;;;;;;4.34;80.38;99311.22;5071302;28;19969;-85
2023/03/05 03:16:29;;;;;;;;;;;;;;;4.39;80.64;99306.91;5071338;28;19919;-85
2023/03/05 03:18:54;;;;;;;;;;;;;;;4.18;80.29;99306.81;5071135;28;20410;-85
2023/03/05 03:21:22;;;;;;;;;;;;;;;3.97;80.37;99311.06;5071573;28;19955;-85
2023/03/05 03:23:47;;;;;;;;;;;;;;;4.00;81.40;99304.97;5070839;28;19912;-85
2023/03/05 03:26:12;;;;;;;;;;;;;;;4.03;81.70;99292.81;5064433;28;20385;-89
2023/03/05 03:28:38;;;;;;;;;;;;;;;4.10;82.27;99312.84;5071021;28;19916;-85
2023/03/05 03:31:03;;;;;;;;;;;;;;;4.01;82.29;99311.94;5071432;28;19912;-85
2023/03/05 03:33:28;;;;;;;;;;;;;;;4.04;83.74;99315.44;5071442;28;20376;-84
2023/03/05 03:35:54;;;;;;;;;;;;;;;4.14;83.73;99303.31;5071230;28;19917;-85
2023/03/05 03:38:19;;;;;;;;;;;;;;;4.19;83.55;99301.59;5070959;28;20348;-84
2023/03/05 03:40:44;;;;;;;;;;;;;;;4.37;83.35;99299.91;5070914;28;19955;-85
2023/03/05 03:43:10;;;;;;;;;;;;;;;4.18;82.84;99309.41;5064808;28;20008;-84
2023/03/05 03:45:38;;;;;;;;;;;;;;;4.32;82.03;99299.88;5051858;28;19931;-84
2023/03/05 03:48:04;;;;;;;;;;;;;;;4.24;81.52;99299.00;5050527;28;19999;-84
2023/03/05 03:50:29;;;;;;;;;;;;;;;4.21;81.98;99294.63;5050784;28;20008;-84
2023/03/05 03:52:54;;;;;;;;;;;;;;;4.19;82.87;99295.50;5050845;28;19920;-85
2023/03/05 03:55:20;;;;;;;;;;;;;;;3.99;82.38;99298.88;5053429;28;20072;-84
2023/03/05 03:57:46;;;;;;;;;;;;;;;3.69;84.00;99300.44;5070434;28;19916;-84
2023/03/05 04:00:11;;;;;;;;;;;;;;;3.44;84.10;99301.13;5070854;28;20370;-85
2023/03/05 04:02:36;;;;;;;;;;;;;;;3.31;84.04;99297.56;5070870;28;19946;-85
2023/03/05 04:05:02;;;;;;;;;;;;;;;3.40;83.09;99300.25;5070625;28;20062;-84
2023/03/05 04:07:28;;;;;;;;;;;;;;;3.53;83.31;99296.84;5070155;28;20283;-86
2023/03/05 04:09:53;;;;;;;;;;;;;;;3.40;82.94;99308.06;5070582;28;20282;-85
2023/03/05 04:12:18;;;;;;;;;;;;;;;3.32;82.27;99299.28;5070957;28;19998;-85
2023/03/05 04:14:45;;;;;;;;;;;;;;;3.26;82.55;99307.06;5070613;28;20287;-84
2023/03/05 04:17:10;;;;;;;;;;;;;;;3.32;83.22;99301.91;5070391;28;19919;-85
2023/03/05 04:19:36;;;;;;;;;;;;;;;3.45;81.99;99300.28;5070214;28;19912;-86
2023/03/05 04:22:01;;;;;;;;;;;;;;;3.43;82.04;99305.47;5070627;28;19924;-86
2023/03/05 04:24:26;;;;;;;;;;;;;;;3.49;81.78;99302.94;5070819;28;20340;-85
2023/03/05 04:26:52;;;;;;;;;;;;;;;3.53;82.17;99309.03;5070294;28;19913;-84
2023/03/05 04:29:17;;;;;;;;;;;;;;;3.68;82.02;99311.75;5070437;28;19912;-84
2023/03/05 04:31:43;;;;;;;;;;;;;;;3.42;81.77;99310.69;5070270;28;19923;-83
2023/03/05 04:34:08;;;;;;;;;;;;;;;3.47;82.31;99308.97;5070200;28;19920;-83
2023/03/05 04:36:34;;;;;;;;;;;;;;;3.42;82.28;99310.69;5070215;28;19923;-83
2023/03/05 04:38:59;;;;;;;;;;;;;;;3.40;82.84;99308.94;5070677;28;20386;-83
2023/03/05 04:41:25;;;;;;;;;;;;;;;3.40;82.77;99306.31;5070306;28;19919;-84
2023/03/05 04:43:50;;;;;;;;;;;;;;;3.31;83.59;99303.66;5069706;28;19916;-84
2023/03/05 04:46:16;;;;;;;;;;;;;;;3.17;83.86;99308.75;5069856;28;19917;-84
2023/03/05 04:48:41;;;;;;;;;;;;;;;3.18;84.20;99313.09;5070065;28;20382;-83
2023/03/05 04:51:06;;;;;;;;;;;;;;;3.29;83.98;99304.47;5070384;28;19912;-83
2023/03/05 04:53:32;;;;;;;;;;;;;;;3.56;83.39;99316.88;5069962;28;19913;-83
2023/03/05 04:56:00;;;;;;;;;;;;;;;3.52;83.18;99312.47;5071483;28;19959;-84
2023/03/05 04:58:26;;;;;;;;;;;;;;;3.62;82.86;99316.06;5072176;28;20314;-83
2023/03/05 05:00:51;;;;;;;;;;;;;;;3.65;82.91;99319.53;5073888;28;19912;-85
2023/03/05 05:03:16;;;;;;;;;;;;;;;3.68;82.05;99319.56;5073256;28;20321;-85
2023/03/05 05:05:41;;;;;;;;;;;;;;;3.78;82.63;99314.41;5073446;28;19924;-85
2023/03/05 05:08:07;;;;;;;;;;;;;;;3.79;82.45;99317.03;5073664;28;19916;-83
2023/03/05 05:10:32;;;;;;;;;;;;;;;3.82;82.62;99319.66;5072745;28;19916;-84
2023/03/05 05:12:58;;;;;;;;;;;;;;;3.87;82.63;99315.31;5072635;28;19922;-84
2023/03/05 05:15:23;;;;;;;;;;;;;;;3.77;81.00;99318.75;5072842;28;19942;-85
2023/03/05 05:17:49;;;;;;;;;;;;;;;3.71;81.18;99322.19;5072936;28;19973;-84
2023/03/05 05:20:15;;;;;;;;;;;;;;;3.78;81.33;99323.09;5073188;28;19917;-84
2023/03/05 05:22:41;;;;;;;;;;;;;;;3.80;81.67;99323.09;5071366;28;19920;-86
2023/03/05 05:25:06;;;;;;;;;;;;;;;3.98;81.60;99322.34;5069295;28;19924;-84
2023/03/05 05:27:31;;;;;;;;;;;;;;;4.07;81.65;99330.25;5072860;28;20329;-88
2023/03/05 05:29:57;;;;;;;;;;;;;;;4.07;81.68;99335.47;5069421;28;19970;-87
2023/03/05 05:32:23;;;;;;;;;;;;;;;4.16;81.73;99329.44;5072222;28;20014;-86
2023/03/05 05:34:52;;;;;;;;;;;;;;;4.30;81.33;99327.75;5072587;28;19916;-82
2023/03/05 05:37:17;;;;;;;;;;;;;;;4.38;81.20;99336.47;5061202;28;19974;-82
2023/03/05 05:39:48;;;;;;;;;;;;;;;4.42;81.74;99346.06;5052972;28;19921;-82
2023/03/05 05:42:14;;;;;;;;;;;;;;;4.65;81.08;99337.47;5052486;28;19917;-82
2023/03/05 05:44:39;;;;;;;;;;;;;;;4.45;81.74;99338.25;5068316;28;19916;-83
2023/03/05 05:47:04;;;;;;;;;;;;;;;4.44;81.89;99341.72;5072255;28;19913;-83
2023/03/05 05:49:30;;;;;;;;;;;;;;;4.46;82.08;99344.34;5072506;28;19970;-82
2023/03/05 05:51:56;;;;;;;;;;;;;;;4.49;82.27;99341.75;5069928;28;19917;-83
2023/03/05 05:54:22;;;;;;;;;;;;;;;4.61;82.64;99340.94;5072551;28;19916;-83
2023/03/05 05:56:47;;;;;;;;;;;;;;;4.73;82.73;99343.59;5062977;28;19930;-86
2023/03/05 05:59:12;;;;;;;;;;;;;;;4.66;83.48;99347.94;5067117;28;20284;-84
2023/03/05 06:01:38;;;;;;;;;;;;;;;4.87;82.69;99338.38;5068341;28;19920;-84
2023/03/05 06:04:03;;;;;;;;;;;;;;;4.97;82.94;99340.16;5069865;28;19950;-84
2023/03/05 06:06:29;;;;;;;;;;;;;;;5.07;83.82;99351.50;5067548;28;19923;-84
2023/03/05 06:08:54;;;;;;;;;;;;;;;5.37;85.02;99347.16;5064712;28;19935;-86
2023/03/05 06:11:20;;;;;;;;;;;;;;;5.72;83.65;99346.31;5070552;28;19954;-88
2023/03/05 06:13:45;;;;;;;;;;;;;;;5.89;84.36;99346.28;5069468;28;19916;-87
2023/03/05 06:16:12;;;;;;;;;;;;;;;6.26;84.35;99351.47;5071674;28;19920;-87
2023/03/05 06:18:37;;;;;;;;;;;;;;;6.72;82.82;99347.78;5071938;28;19978;-84
2023/03/05 06:21:04;;;;;;;;;;;;;;;6.90;81.42;99347.69;5071622;28;20398;-85
2023/03/05 06:23:29;;;;;;;;;;;;;;;7.01;80.34;99347.63;5072160;28;20020;-86
2023/03/05 06:25:57;;;;;;;;;;;;;;;7.22;80.57;99345.75;5071740;28;19999;-86
2023/03/05 06:28:23;;;;;;;;;;;;;;;7.23;80.87;99345.75;5070467;28;19912;-88
2023/03/05 06:30:48;;;;;;;;;;;;;;;7.50;81.67;99347.28;5071659;28;19923;-88
2023/03/05 06:33:13;;;;;;;;;;;;;;;7.68;81.53;99346.25;5070429;28;19936;-87
2023/03/05 06:35:39;;;;;;;;;;;;;;;7.84;81.17;99351.38;5071539;28;19920;-88
2023/03/05 06:38:05;;;;;;;;;;;;;;;7.87;80.46;99353.97;5072215;28;19924;-88
2023/03/05 06:40:30;;;;;;;;;;;;;;;8.01;81.01;99351.22;5069552;28;19973;-87
2023/03/05 06:42:55;;;;;;;;;;;;;;;8.28;79.39;99351.78;5051727;28;19917;-87
2023/03/05 06:45:21;;;;;;;;;;;;;;;8.46;79.20;99350.75;5060872;28;19999;-87
2023/03/05 06:47:46;;;;;;;;;;;;;;;8.42;78.42;99349.91;5070648;28;19913;-87
2023/03/05 06:50:12;;;;;;;;;;;;;;;8.47;78.33;99342.84;5070734;28;20469;-88
2023/03/05 06:52:39;;;;;;;;;;;;;;;8.85;76.80;99335.34;5070871;28;19916;-89
2023/03/05 06:55:05;;;;;;;;;;;;;;;9.37;74.93;99337.22;5071297;28;20405;-91
2023/03/05 06:57:30;;;;;;;;;;;;;;;9.35;71.91;99343.41;5071388;28;19916;-90
2023/03/05 06:59:56;;;;;;;;;;;;;;;9.27;70.80;99351.44;5084885;28;19940;-87
2023/03/05 07:02:21;;;;;;;;;;;;;;;9.05;71.13;99342.97;5086220;28;19912;-90
2023/03/05 07:04:46;;;;;;;;;;;;;;;8.74;73.38;99346.91;5077131;28;19951;-91
2023/03/05 07:07:12;;;;;;;;;;;;;;;9.09;73.57;99348.16;5070441;28;19924;-88
2023/03/05 07:09:41;;;;;;;;;;;;;;;9.42;72.98;99343.28;5069271;28;19919;-89
2023/03/05 07:12:08;;;;;;;;;;;;;;;9.65;73.29;99347.28;5069624;28;19916;-89
2023/03/05 07:14:33;;;;;;;;;;;;;;;9.62;72.57;99350.88;5070440;28;19939;-89
2023/03/05 07:16:58;;;;;;;;;;;;;;;9.55;72.49;99348.38;5071175;28;19916;-88
2023/03/05 07:19:23;;;;;;;;;;;;;;;9.42;72.60;99345.94;5070403;28;19920;-88
2023/03/05 07:21:49;;;;;;;;;;;;;;;9.55;72.32;99351.00;5070518;28;19981;-86
2023/03/05 07:24:14;;;;;;;;;;;;;;;10.04;71.32;99347.50;5070732;28;19916;-86
2023/03/05 07:26:39;;;;;;;;;;;;;;;10.26;69.14;99344.47;5070489;28;20393;-85
2023/03/05 07:29:05;;;;;;;;;;;;;;;10.23;70.06;99350.66;5069925;28;19927;-85
2023/03/05 07:31:30;;;;;;;;;;;;;;;10.41;68.16;99352.13;5068778;28;19931;-84
2023/03/05 07:33:57;;;;;;;;;;;;;;;10.13;69.90;99355.25;5070481;28;20015;-84
2023/03/05 07:36:24;;;;;;;;;;;;;;;10.43;69.51;99350.31;5069133;28;19916;-86
2023/03/05 07:38:49;;;;;;;;;;;;;;;10.36;69.41;99338.13;5070443;28;19919;-85
2023/03/05 07:41:19;;;;;;;;;;;;;;;10.60;69.22;99339.41;5068622;28;19913;-88
2023/03/05 07:43:45;;;;;;;;;;;;;;;10.88;67.06;99334.41;5070256;28;19917;-88
2023/03/05 07:46:12;;;;;;;;;;;;;;;11.05;66.13;99327.91;5069646;28;19913;-89
2023/03/05 07:48:38;;;;;;;;;;;;;;;11.02;65.88;99330.59;5070557;28;20002;-89
2023/03/05 07:51:05;;;;;;;;;;;;;;;10.80;67.02;99335.47;5070690;28;20374;-88
2023/03/05 07:53:30;;;;;;;;;;;;;;;10.80;66.98;99332.84;5070629;28;19916;-88
2023/03/05 07:55:55;;;;;;;;;;;;;;;11.02;66.17;99326.19;5072210;28;20435;-87
2023/03/05 07:58:21;;;;;;;;;;;;;;;10.94;65.92;99320.22;5073026;28;19920;-93
2023/03/05 08:00:46;;;;;;;;;;;;;;;11.00;65.87;99325.38;5086293;28;20395;-91
2023/03/05 08:03:11;;;;;;;;;;;;;;;10.99;65.61;99323.63;5074198;28;19919;-93
2023/03/05 08:05:40;;;;;;;;;;;;;;;10.86;66.52;99317.75;5070653;28;19912;-88
2023/03/05 08:08:06;;;;;;;;;;;;;;;10.97;67.33;99313.97;5070264;28;19935;-88
2023/03/05 08:10:32;;;;;;;;;;;;;;;10.56;68.78;99306.94;5070342;28;20381;-89
2023/03/05 08:12:57;;;;;;;;;;;;;;;11.25;67.69;99314.22;5070537;28;19916;-89
2023/03/05 08:15:22;;;;;;;;;;;;;;;11.25;67.48;99304.53;5070120;28;19920;-90
2023/03/05 08:17:47;;;;;;;;;;;;;;;11.38;66.51;99304.22;5070302;28;20356;-89
2023/03/05 08:20:13;;;;;;;;;;;;;;;11.81;66.00;99305.78;5072464;28;20346;-91
2023/03/05 08:22:38;;;;;;;;;;;;;;;12.09;64.11;99305.94;5072481;28;20026;-91
2023/03/05 08:25:04;;;;;;;;;;;;;;;12.09;64.85;99297.16;5071223;28;19912;-90
2023/03/05 08:27:30;;;;;;;;;;;;;;;12.29;64.47;99297.44;5071384;28;19924;-89
2023/03/05 08:29:55;;;;;;;;;;;;;;;12.11;65.26;99298.84;5071455;28;19935;-89
2023/03/05 08:32:20;;;;;;;;;;;;;;;12.30;63.07;99296.56;5075104;28;20317;-90
2023/03/05 08:34:55;;;;;;;;;;;;;;;12.19;62.58;99298.63;5076208;28;19912;-91
2023/03/05 08:37:21;;;;;;;;;;;;;;;12.11;63.06;99293.56;5075644;28;20012;-91
2023/03/05 08:39:47;;;;;;;;;;;;;;;12.24;65.02;99293.22;5074869;28;20429;-90
2023/03/05 08:42:13;;;;;;;;;;;;;;;12.38;63.27;99288.41;5077466;28;19995;-90
2023/03/05 08:44:38;;;;;;;;;;;;;;;12.18;61.75;99292.47;5076213;28;19971;-89
2023/03/05 08:47:08;;;;;;;;;;;;;;;11.79;62.36;99276.75;5077656;28;19913;-89
2023/03/05 08:49:33;;;;;;;;;;;;;;;11.71;63.34;99273.47;5078383;28;20010;-89
2023/03/05 08:52:00;;;;;;;;;;;;;;;11.69;62.69;99277.03;5078369;28;19962;-90
2023/03/05 08:54:25;;;;;;;;;;;;;;;11.57;61.37;99272.94;5076534;28;20003;-90
2023/03/05 08:56:50;;;;;;;;;;;;;;;11.78;61.08;99267.09;5076785;28;20347;-91
2023/03/05 08:59:16;;;;;;;;;;;;;;;11.70;62.63;99269.06;5076434;28;19935;-90
2023/03/05 09:01:41;;;;;;;;;;;;;;;11.60;61.35;99265.81;5076830;28;19912;-90
2023/03/05 09:04:07;;;;;;;;;;;;;;;11.71;63.94;99262.91;5076273;28;19913;-90
2023/03/05 09:06:33;;;;;;;;;;;;;;;11.85;61.78;99270.47;5076283;28;19979;-90
2023/03/05 09:08:58;;;;;;;;;;;;;;;11.97;63.48;99266.63;5075439;28;19968;-90
2023/03/05 09:11:24;;;;;;;;;;;;;;;12.09;60.92;99270.72;5075006;28;19917;-91
2023/03/05 09:13:50;;;;;;;;;;;;;;;11.99;61.54;99260.41;5079666;28;19918;-90
2023/03/05 09:16:17;;;;;;;;;;;;;;;11.96;63.00;99271.06;5077030;28;19912;-89
2023/03/05 09:18:42;;;;;;;;;;;;;;;12.39;62.32;99262.81;5074593;28;19953;-93
2023/03/05 09:21:14;;;;;;;;;;;;;;;11.94;62.10;99262.31;5076779;28;19916;-89
2023/03/05 09:23:39;;;;;;;;;;;;;;;12.16;60.82;99252.00;5075182;28;19916;-89
2023/03/05 09:26:06;;;;;;;;;;;;;;;11.67;62.35;99258.59;5075671;28;20019;-93
2023/03/05 09:28:33;;;;;;;;;;;;;;;11.60;64.03;99249.09;5075022;28;19948;-93
2023/03/05 09:31:01;;;;;;;;;;;;;;;11.92;63.37;99250.88;5075537;28;19912;-89
2023/03/05 09:33:26;;;;;;;;;;;;;;;12.39;63.01;99237.25;5077770;28;19919;-94
2023/03/05 09:35:51;;;;;;;;;;;;;;;12.35;62.01;99238.22;5077720;28;20262;-92
2023/03/05 09:38:22;;;;;;;;;;;;;;;12.29;60.43;99236.63;5075763;28;19916;-89
2023/03/05 09:41:02;;;;;;;;;;;;;;;12.23;62.40;99228.00;5076924;28;20011;-90
2023/03/05 09:43:27;;;;;;;;;;;;;;;13.04;62.47;99230.81;5075763;28;19916;-89
2023/03/05 09:45:55;;;;;;;;;;;;;;;13.51;60.64;99222.22;5078046;28;19965;-95
2023/03/05 09:48:41;;;;;;;;;;;;;;;13.39;58.72;99222.63;5077369;28;19970;-92
2023/03/05 09:51:12;;;;;;;;;;;;;;;13.65;56.78;99219.06;5061642;28;20390;-92
2023/03/05 09:53:57;;;;;;;;;;;;;;;13.05;57.64;99221.06;5073702;28;19913;-91
2023/03/05 09:56:25;;;;;;;;;;;;;;;12.61;55.90;99223.38;5072999;28;19916;-93
2023/03/05 09:58:56;;;;;;;;;;;;;;;12.62;54.75;99220.66;5073511;28;19916;-92
2023/03/05 10:01:41;;;;;;;;;;;;;;;12.65;55.23;99222.34;5073849;28;19923;-94
2023/03/05 10:04:15;;;;;;;;;;;;;;;12.88;57.21;99208.38;5074715;28;20386;-92
2023/03/05 10:06:52;;;;;;;;;;;;;;;12.74;54.19;99207.97;5090959;28;20412;-96
2023/03/05 10:09:20;;;;;;;;;;;;;;;12.76;54.99;99198.19;5074574;28;19912;-88
2023/03/05 10:12:01;;;;;;;;;;;;;;;12.52;55.56;99188.31;5072750;28;19912;-89
2023/03/05 10:14:29;;;;;;;;;;;;;;;12.95;56.54;99185.25;5064121;28;19924;-92
2023/03/05 10:17:13;;;;;;;;;;;;;;;12.68;55.76;99186.09;5075136;28;20017;-93
2023/03/05 10:19:57;;;;;;;;;;;;;;;12.55;55.57;99184.72;5072744;28;19916;-91
2023/03/05 10:22:35;;;;;;;;;;;;;;;12.97;56.87;99176.31;5072992;28;19916;-93
2023/03/05 10:25:00;;;;;;;;;;;;;;;13.45;55.05;99164.13;5088984;28;19916;-95
2023/03/05 10:27:31;;;;;;;;;;;;;;;13.91;55.17;99151.00;5072485;28;19932;-92
2023/03/05 10:30:03;;;;;;;;;;;;;;;13.75;52.31;99158.66;5072998;28;20463;-94
2023/03/05 10:32:43;;;;;;;;;;;;;;;13.35;50.82;99155.66;5070535;28;20458;-93
2023/03/05 10:35:29;;;;;;;;;;;;;;;12.76;53.35;99148.78;5074538;28;19916;-93
2023/03/05 10:37:55;;;;;;;;;;;;;;;13.20;53.77;99146.41;5000041;28;19916;-93
2023/03/05 10:40:31;;;;;;;;;;;;;;;13.58;53.04;99141.59;5018574;28;19928;-94
2023/03/05 10:43:18;;;;;;;;;;;;;;;13.63;51.22;99138.78;5027568;28;19921;-95
2023/03/05 10:45:47;;;;;;;;;;;;;;;13.69;53.54;99120.00;5036000;28;19924;-96
2023/03/05 10:48:35;;;;;;;;;;;;;;;13.70;53.01;99113.78;5039709;28;19909;-96
2023/03/05 10:51:11;;;;;;;;;;;;;;;13.14;53.28;99114.00;5012695;28;19909;-93
2023/03/05 10:53:48;;;;;;;;;;;;;;;13.03;53.80;99112.56;5007723;28;19920;-92
2023/03/05 10:56:14;;;;;;;;;;;;;;;12.81;53.67;99104.50;5004062;28;19917;-86
2023/03/05 10:58:39;;;;;;;;;;;;;;;13.35;55.42;99100.03;5003957;28;20485;-91
2023/03/05 11:01:25;;;;;;;;;;;;;;;13.23;53.55;99101.28;4989697;28;19955;-91
2023/03/05 11:03:55;;;;;;;;;;;;;;;12.87;54.22;99098.13;4995896;28;19918;-93
2023/03/05 11:06:28;;;;;;;;;;;;;;;12.97;53.61;99091.59;4996529;28;20659;-93
2023/03/05 11:08:55;;;;;;;;;;;;;;;12.95;53.09;99085.50;4996484;28;19951;-94
2023/03/05 11:11:21;;;;;;;;;;;;;;;12.84;53.13;99082.38;5002964;28;20478;-90
2023/03/05 11:13:48;;;;;;;;;;;;;;;12.89;53.73;99068.03;5006126;28;19919;-89
2023/03/05 11:16:16;;;;;;;;;;;;;;;12.93;52.57;99071.47;5015840;28;19926;-90
2023/03/05 11:18:41;;;;;;;;;;;;;;;13.05;52.85;99054.25;5024582;28;19921;-88
2023/03/05 11:21:10;;;;;;;;;;;;;;;13.48;53.90;99044.78;5030691;28;19917;-89
2023/03/05 11:23:35;;;;;;;;;;;;;;;13.69;52.71;99047.59;5017593;28;19914;-91
2023/03/05 11:26:02;;;;;;;;;;;;;;;13.66;51.99;99040.59;5035050;28;19920;-90
2023/03/05 11:28:50;;;;;;;;;;;;;;;14.23;50.33;99041.03;5064004;28;19905;-90
2023/03/05 11:31:15;;;;;;;;;;;;;;;13.81;52.49;99031.22;5073291;28;20018;-92
2023/03/05 11:33:59;;;;;;;;;;;;;;;13.93;50.86;99038.69;5073773;28;19959;-93
2023/03/05 11:36:29;;;;;;;;;;;;;;;14.38;50.48;99031.59;5072331;28;19965;-88
2023/03/05 11:38:58;;;;;;;;;;;;;;;14.54;50.30;99029.16;5070300;28;19927;-91
2023/03/05 11:41:44;;;;;;;;;;;;;;;14.18;48.71;99035.06;5069455;28;19924;-93
2023/03/05 11:44:13;;;;;;;;;;;;;;;14.08;49.11;99031.88;5067896;28;19916;-93
2023/03/05 11:46:45;;;;;;;;;;;;;;;14.24;50.63;99025.97;5069150;28;19920;-94
2023/03/05 11:49:13;;;;;;;;;;;;;;;14.22;47.67;99027.81;5070832;28;19912;-94
2023/03/05 11:51:41;;;;;;;;;;;;;;;14.08;50.65;99029.25;5071645;28;19916;-94
2023/03/05 11:54:11;;;;;;;;;;;;;;;14.56;47.21;99021.97;5069379;28;19912;-94
2023/03/05 11:56:38;;;;;;;;;;;;;;;14.68;46.59;99013.53;5069568;28;20306;-93
2023/03/05 11:59:15;;;;;;;;;;;;;;;14.52;47.94;99007.13;5070471;28;19908;-91
2023/03/05 12:01:46;;;;;;;;;;;;;;;15.21;47.43;99009.47;5071849;28;19919;-91
2023/03/05 12:04:11;;;;;;;;;;;;;;;15.34;45.89;99008.94;5054700;28;19916;-91
2023/03/05 12:06:40;;;;;;;;;;;;;;;15.64;45.10;99003.13;5072827;28;19919;-91
2023/03/05 12:09:11;;;;;;;;;;;;;;;15.58;44.79;98998.94;5074155;28;19966;-92
2023/03/05 12:11:37;;;;;;;;;;;;;;;15.61;44.73;98998.81;5072374;28;19908;-90
2023/03/05 12:14:20;;;;;;;;;;;;;;;15.77;44.22;98999.00;5073846;28;19927;-92
2023/03/05 12:17:04;;;;;;;;;;;;;;;15.53;44.79;98990.31;5073819;28;19912;-92
2023/03/05 12:19:48;;;;;;;;;;;;;;;15.64;43.50;98996.00;5073327;28;20020;-93
2023/03/05 12:22:15;;;;;;;;;;;;;;;15.61;46.04;98990.81;5072558;28;19916;-91
2023/03/05 12:24:41;;;;;;;;;;;;;;;15.69;42.86;98982.50;5074643;28;19920;-92
2023/03/05 12:27:08;;;;;;;;;;;;;;;16.05;41.49;98968.38;5055513;28;20390;-91
2023/03/05 12:29:50;;;;;;;;;;;;;;;15.84;41.82;98967.66;5077772;28;19912;-93
2023/03/05 12:32:21;;;;;;;;;;;;;;;15.49;44.40;98968.34;5073915;28;20401;-92
2023/03/05 12:34:56;;;;;;;;;;;;;;;15.40;41.79;98966.13;5074103;28;20114;-91
2023/03/05 12:37:26;;;;;;;;;;;;;;;15.65;41.83;98970.28;5073781;28;19935;-93
2023/03/05 12:39:57;;;;;;;;;;;;;;;15.85;41.17;98964.03;5074102;28;20061;-91
2023/03/05 12:42:28;;;;;;;;;;;;;;;15.55;42.29;98957.44;5072669;28;19913;-94
2023/03/05 12:45:18;;;;;;;;;;;;;;;15.57;41.93;98950.25;5074005;28;19916;-95
2023/03/05 12:47:55;;;;;;;;;;;;;;;15.80;42.00;98939.47;5074670;28;19913;-93
2023/03/05 12:50:26;;;;;;;;;;;;;;;15.66;42.90;98940.09;5073774;28;20467;-89
2023/03/05 12:53:12;;;;;;;;;;;;;;;15.61;43.30;98940.31;5074020;28;19935;-93
2023/03/05 12:55:46;;;;;;;;;;;;;;;15.76;43.02;98936.06;5089817;28;19912;-91